Terminal Aerodrome Forecast
Issued by NWS Albany, NY

Home | Current Version | Previous Version | Text Only | Print | Product List | Glossary On
Versions: 1 2 3 4 5 6 7 8 9 10 11 12 13 14 15 16 17 18 19 20
000
FTUS41 KALY 262300
TAFGFL
TAF
KGFL 262333Z 2700/2724 36008KT P6SM VCSH OVC050
     FM270800 01008KT 5SM -SN BR OVC025
     FM271300 02009KT 2SM -SN BR OVC008
     FM271700 01012G18KT 3/4SM -SN BR VV003=

USA.gov is the U.S. government's official web portal to all federal, state and local government web resources and services.